Detall de PIREP

Printer-friendly versionPDF version

[2015/04/03 05:48:00]
Flight IATA:CT1004
Pilot Number:012
Company ICAO:CAT
Aircraft Type:B744/E
PAX:426
Departing Airport: LPPR
Destination Airport: LFMP
Alternate Airport:LEBL
Online: VATSIM
Route:BELDU UL155 ZMR UN976 DGO UL176 SSN UP181 BTZ UT144 GONUP UN871 TOU UT21 BOLSA UZ39 SIJAN
Flight Level:F360
No Slew and time accel
No pause
Crash detect
Detect pilot in Cockpit between each 30 and 45 minutes
05:48 Zero fuel Weight: 486759 Lbs, Fuel Weight: 63904 Lbs
05:48 VATSIM:LPPR 030530Z 12009KT CAVOK 15/04 Q1019
05:48 VATSIM:LFMP 030530Z AUTO 15004KT 100V190 9999 FEW043 12/06 Q1021
05:48 EASTER CHARTER
05:51 Parking Brakes off
05:59 Take-off
05:59 Take off Weight: 548423 Lbs
05:59 Wind: 123º @ 009 Knots Heading: 168º
05:59 POS N41º 15´ 01´´ W008º 40´ 55´´
05:59 Flaps:3 at 178 Knots
05:59 Gear Up: 189 Knots
05:59 Flaps:2 at 206 Knots
06:00 Flaps:1 at 200 Knots
06:00 Flaps:0 at 230 Knots
06:14 Wind:237º@057 Knots Heading: 087º Ground Speed: 534 Knots Altitude 35387 ft
06:14 TOC
06:14 Fuel Weight: 50191 Lb
06:29 Wind:261º@051 Knots Heading: 063º Ground Speed: 529 Knots Altitude 36282 ft
06:44 Wind:270º@054 Knots Heading: 052º Ground Speed: 524 Knots Altitude 36312 ft
06:59 Wind:287º@046 Knots Heading: 079º Ground Speed: 522 Knots Altitude 36266 ft
07:02 TOD
07:02 Fuel Weight: 34060 Lb
07:14 Wind:310º@013 Knots Heading: 166º Ground Speed: 313 Knots Altitude 10226 ft
07:17 Flaps:1 at 238 Knots
07:18 Flaps:2 at 206 Knots
07:18 Flaps:3 at 200 Knots
07:19 Flaps:4 at 189 Knots
07:22 Gear Down: 190 Knots
07:22 Flaps:5 at 188 Knots
07:23 Flaps:6 at 174 Knots
07:25 TouchDown:Rate -392 ft/min Speed: 136 Knots
07:26 VATSIM:LFMP 030700Z AUTO 01007KT 350V050 9999 BKN045 14/06 Q1021
07:26 Land
07:26 Wind:071º@006 Knots
07:26 Heading: 330º
07:26 Flight Duration: 01:27
07:26 Landing Weight: 515710 Lbs
07:26 POS N42º 44´ 43´´ E002º 52´ 08´´
07:28 Parking brakes on
07:28 Block to Block Duration: 01:37
07:28 Final Fuel: 28476 Lbls
07:28 Spent Fuel: 35427 Lbls
07:28 Flight Length: 652 NM
07:28 TOD Land Length: 125 NM

Exportar CSV

Powered by Drupal - Modified by Danger4k